Accueil
METAR-TAF:

METAR-TAF

Aéroports :

Orange, France

Base aérienne 115 Orange-Caritat

latitude: 44-08N, longitude: 004-50E, altitude: 60 m

Observation

Le bulletin a été fait il y a 21 minutes, à 16:00 UTC
Vent 19 kt de nord
Température 5°C
Humidité 52%
Pression 1006 hPa
Visibilité: 9000 m

METAR: LFMO 221600Z AUTO 35019KT 9000 NSC 05/M04 Q1006 TEMPO 35020G30KT

Heure: 17:21 (16:21 UTC)

Prévision

Le bulletin a été fait il y a 2 heures et 21 minutes, à 14:00 UTC
Prévision valable du 22 à 15 UTC au 23 à 15 UTC
Vent 15 kt de nord avec des rafales jusqu'à 25 kt
Visibilité: 8000 m
Temporairement
du 22 à 15 UTC au 23 à 15 UTC
Vent 20 kt de nord avec des rafales jusqu'à 30 kt
Visibilité 10 km ou plus
pas de nuages en-dessous de 1500 mètres et pas de cumulonimbus.

TAF: LFMO 221400Z 2215/2315 35015G25KT 8000 NSC TEMPO 2215/2315 35020G30KT CAVOK

Observations et prévisions météorologiques de plus de 4000 aéroports (messages METAR et TAF).

Les stations disponibles sont représentées par des disques jaunes et rouges sur la carte.

Passer la souris dessus pour voir le nom de la station.

Cliquer dessus pour voir les observations et prévisions météorologiques.

Pour changer de carte: cliquez sur les boutons verts avec une croix noire pour zoomer, sur le bouton vert avec un tiret pour effectuer un zoom arrière, ou sur les flèches vertes pour les cartes adjacentes.


METAR-TAF: